Time;durP1;ratioP1;P1;durP2;ratioP2;P2;SDS_P1;SDS_P2;PMS_P1;PMS_P2;Temp;Humidity;BMP_temperature;BMP_pressure;BME280_temperature;BME280_humidity;BME280_pressure;Samples;Min_cycle;Max_cycle;Signal;HPM_P1;HPM_P2
2022/03/23 00:00:54;;;;;;;29.67;13.05;;;;;;;2.49;68.57;98768.13;5020882;28;20029;-87
2022/03/23 00:03:20;;;;;;;30.60;12.25;;;;;;;2.46;68.95;98765.50;5021150;28;20459;-85
2022/03/23 00:05:46;;;;;;;26.23;10.65;;;;;;;2.48;69.51;98769.03;5037016;28;20463;-85
2022/03/23 00:08:12;;;;;;;18.23;6.57;;;;;;;2.49;68.38;98770.75;5037269;28;20024;-85
2022/03/23 00:10:37;;;;;;;14.55;7.30;;;;;;;2.47;68.58;98762.00;5027686;28;20028;-87
2022/03/23 00:13:06;;;;;;;19.90;9.07;;;;;;;2.53;68.21;98767.19;5021656;28;20078;-85
2022/03/23 00:15:31;;;;;;;21.15;10.30;;;;;;;2.48;68.83;98757.59;5020592;28;20036;-86
2022/03/23 00:17:57;;;;;;;19.60;10.15;;;;;;;2.57;69.24;98768.94;5037015;28;20488;-86
2022/03/23 00:20:24;;;;;;;22.50;10.15;;;;;;;2.55;69.55;98760.13;5036887;28;20060;-85
2022/03/23 00:22:51;;;;;;;17.33;8.07;;;;;;;2.41;70.07;98748.84;5020523;28;20064;-86
2022/03/23 00:25:39;;;;;;;15.70;8.30;;;;;;;2.44;69.69;98759.38;5021075;28;20484;-84
2022/03/23 00:28:05;;;;;;;29.02;10.13;;;;;;;2.37;70.48;98755.03;5020607;28;20044;-85
2022/03/23 00:30:32;;;;;;;24.48;9.43;;;;;;;2.24;70.82;98749.91;5020133;28;20024;-83
2022/03/23 00:32:58;;;;;;;21.90;8.15;;;;;;;2.32;71.24;98779.75;5009373;28;20053;-85
2022/03/23 00:35:24;;;;;;;18.58;8.27;;;;;;;2.30;70.83;98761.28;5016010;28;20033;-85
2022/03/23 00:37:50;;;;;;;18.77;8.05;;;;;;;2.18;71.17;98762.25;5016330;28;20065;-85
2022/03/23 00:40:16;;;;;;;16.48;6.10;;;;;;;2.12;71.04;98757.03;5000485;28;20083;-84
2022/03/23 00:42:42;;;;;;;14.43;5.35;;;;;;;2.03;71.44;98749.22;5008762;28;20029;-86
2022/03/23 00:45:09;;;;;;;17.00;8.55;;;;;;;1.97;71.95;98746.63;5017138;28;20566;-84
2022/03/23 00:47:35;;;;;;;13.75;7.55;;;;;;;1.78;73.16;98758.25;5000379;28;20477;-86
2022/03/23 00:50:01;;;;;;;12.85;5.50;;;;;;;1.85;72.13;98740.56;5016666;28;20029;-86
2022/03/23 00:52:27;;;;;;;12.93;6.57;;;;;;;1.83;73.06;98766.97;5014883;28;20453;-86
2022/03/23 00:54:53;;;;;;;14.15;5.90;;;;;;;1.74;73.08;98763.53;5016493;28;20465;-84
2022/03/23 00:57:18;;;;;;;16.10;6.30;;;;;;;1.69;73.30;98747.78;5016845;28;20076;-84
2022/03/23 00:59:44;;;;;;;12.00;6.18;;;;;;;1.60;73.65;98730.22;4997295;28;20038;-84
2022/03/23 01:02:10;;;;;;;15.38;6.20;;;;;;;1.74;73.44;98738.03;5013036;28;20064;-85
2022/03/23 01:04:36;;;;;;;15.93;6.30;;;;;;;1.71;73.50;98745.09;5016464;28;20113;-85
2022/03/23 01:07:02;;;;;;;26.58;9.75;;;;;;;1.62;74.35;98741.66;5016005;28;20067;-84
2022/03/23 01:09:28;;;;;;;28.67;9.27;;;;;;;1.60;74.44;98738.13;5016318;28;20033;-85
2022/03/23 01:11:54;;;;;;;19.67;8.05;;;;;;;1.49;74.84;98737.34;5000557;28;20486;-86
2022/03/23 01:14:22;;;;;;;22.20;7.43;;;;;;;1.50;74.15;98731.19;4999770;28;20026;-85
2022/03/23 01:16:48;;;;;;;17.63;7.95;;;;;;;1.37;74.92;98734.81;5016416;28;20036;-84
2022/03/23 01:19:27;;;;;;;13.32;6.30;;;;;;;1.29;76.53;98736.63;5016120;28;20029;-86
2022/03/23 01:21:54;;;;;;;16.70;7.70;;;;;;;1.07;77.27;98720.06;5006330;28;20493;-87
2022/03/23 01:24:19;;;;;;;17.50;6.40;;;;;;;1.29;77.00;98741.91;5016523;28;20032;-85
2022/03/23 01:26:45;;;;;;;23.40;6.70;;;;;;;1.14;77.68;98731.41;4999881;28;20033;-84
2022/03/23 01:29:11;;;;;;;15.80;6.30;;;;;;;1.12;77.94;98743.72;5015858;28;20029;-86
2022/03/23 01:31:37;;;;;;;13.45;6.40;;;;;;;1.05;78.79;98742.00;5001008;28;20029;-85
2022/03/23 01:34:02;;;;;;;17.38;7.05;;;;;;;1.24;78.90;98748.03;5032634;28;20563;-85
2022/03/23 01:36:31;;;;;;;16.75;6.47;;;;;;;1.25;77.79;98750.69;5035665;28;20044;-85
2022/03/23 01:38:58;;;;;;;14.25;6.75;;;;;;;1.22;78.41;98755.97;5035646;28;20031;-85
2022/03/23 01:41:24;;;;;;;15.70;7.28;;;;;;;1.07;78.18;98740.25;5035496;28;20020;-85
2022/03/23 01:43:50;;;;;;;24.40;9.13;;;;;;;1.20;77.96;98751.59;5018822;28;20488;-84
2022/03/23 01:46:17;;;;;;;22.17;8.05;;;;;;;1.23;78.71;98757.72;5035022;28;20028;-84
2022/03/23 01:48:44;;;;;;;22.15;7.63;;;;;;;1.22;78.37;98753.34;5035016;28;20028;-84
2022/03/23 01:51:10;;;;;;;21.08;8.05;;;;;;;1.07;78.76;98730.59;5033061;28;20029;-84
2022/03/23 01:53:36;;;;;;;19.13;8.38;;;;;;;1.01;79.67;98753.47;5035051;28;20033;-85
2022/03/23 01:56:02;;;;;;;25.85;9.52;;;;;;;0.94;80.13;98752.59;5034904;28;20028;-84
2022/03/23 01:58:28;;;;;;;12.52;5.93;;;;;;;0.90;80.14;98756.13;5018133;28;20492;-84
2022/03/23 02:00:54;;;;;;;15.25;5.63;;;;;;;0.91;80.93;98764.91;5034953;28;20072;-84
2022/03/23 02:03:19;;;;;;;12.48;5.72;;;;;;;0.76;81.33;98764.97;5033017;28;20500;-84
2022/03/23 02:05:52;;;;;;;12.77;5.90;;;;;;;0.78;82.10;98752.66;5034001;28;20404;-84
2022/03/23 02:08:17;;;;;;;12.95;5.55;;;;;;;0.73;82.16;98743.91;5034356;28;20484;-83
2022/03/23 02:10:44;;;;;;;11.57;5.65;;;;;;;0.75;82.00;98750.03;5018440;28;20033;-84
2022/03/23 02:13:10;;;;;;;8.93;4.85;;;;;;;0.72;83.16;98768.50;5035187;28;20024;-83
2022/03/23 02:15:36;;;;;;;18.52;5.53;;;;;;;0.73;83.31;98763.22;5034701;28;20021;-83
2022/03/23 02:18:02;;;;;;;34.10;11.95;;;;;;;0.51;83.26;98738.75;5034725;28;20031;-84
2022/03/23 02:20:28;;;;;;;40.45;14.60;;;;;;;0.68;83.19;98758.88;5031642;28;20025;-83
2022/03/23 02:22:54;;;;;;;25.92;10.18;;;;;;;0.67;83.83;98760.63;5018641;28;20036;-84
2022/03/23 02:25:26;;;;;;;26.13;10.90;;;;;;;0.66;83.88;98752.72;5034892;28;20021;-84
2022/03/23 02:27:52;;;;;;;25.63;10.43;;;;;;;0.65;84.10;98757.09;5018170;28;20516;-84
2022/03/23 05:49:38;;;;;;;65.00;31.52;;;;;;;2.64;75.23;98817.28;4983375;28;20136;-84
2022/03/23 05:52:05;;;;;;;88.78;34.88;;;;;;;2.85;74.59;98818.81;4966053;28;20042;-85
2022/03/23 05:54:30;;;;;;;139.82;49.75;;;;;;;2.97;73.41;98822.19;4990121;28;20038;-83
2022/03/23 05:56:56;;;;;;;135.23;49.53;;;;;;;3.04;72.53;98792.19;4968176;28;20490;-84
2022/03/23 05:59:22;;;;;;;80.20;29.05;;;;;;;3.57;71.77;98830.28;4968623;28;20166;-84
2022/03/23 06:01:47;;;;;;;65.45;30.05;;;;;;;3.63;71.32;98817.81;4962488;28;20061;-84
2022/03/23 06:04:13;;;;;;;71.93;30.17;;;;;;;3.89;69.37;98795.38;4959258;28;20056;-83
2022/03/23 06:06:39;;;;;;;72.57;26.98;;;;;;;4.27;68.50;98830.97;4957199;28;20045;-85
2022/03/23 06:09:05;;;;;;;56.03;27.38;;;;;;;4.32;66.90;98812.34;4949130;28;20110;-83
2022/03/23 06:11:31;;;;;;;59.30;26.83;;;;;;;4.32;65.81;98775.25;4956461;28;20121;-86
2022/03/23 06:13:57;;;;;;;97.95;42.88;;;;;;;5.03;64.09;98800.41;4965804;28;20104;-86
2022/03/23 06:16:23;;;;;;;58.92;26.17;;;;;;;5.80;60.42;98766.00;4956877;28;20038;-85
2022/03/23 06:18:50;;;;;;;49.45;22.30;;;;;;;7.22;56.92;98788.00;4959289;28;20057;-85
2022/03/23 06:21:16;;;;;;;36.25;17.48;;;;;;;7.76;54.08;98769.50;4985224;28;20031;-88
2022/03/23 06:23:42;;;;;;;38.83;16.65;;;;;;;9.78;48.83;98756.97;4966660;28;20045;-88
2022/03/23 06:26:07;;;;;;;36.50;17.17;;;;;;;11.75;45.07;98742.19;4965500;28;20097;-89
2022/03/23 06:28:44;;;;;;;;;;;;;;;;;;;;;
2022/03/23 06:34:18;;;;;;;33.55;15.82;;;;;;;13.83;39.70;98722.31;4916855;29;20191;-88
2022/03/23 06:36:44;;;;;;;27.98;13.65;;;;;;;14.32;37.19;98669.22;4953146;28;20034;-89
2022/03/23 06:39:10;;;;;;;49.42;24.25;;;;;;;14.91;35.89;98683.66;4961565;28;20085;-89
2022/03/23 06:41:35;;;;;;;31.10;14.50;;;;;;;15.21;35.44;98706.03;4960316;28;20042;-88
2022/03/23 06:44:01;;;;;;;30.10;15.48;;;;;;;15.32;35.93;98713.47;4968922;28;20042;-89
2022/03/23 06:46:27;;;;;;;46.72;20.13;;;;;;;15.98;34.28;98702.91;4966373;28;20102;-89
2022/03/23 06:48:52;;;;;;;65.85;27.75;;;;;;;15.84;34.68;98719.13;4964435;28;20112;-87
2022/03/23 06:51:18;;;;;;;53.67;24.15;;;;;;;16.13;34.29;98710.88;4970826;28;20046;-89
2022/03/23 06:53:44;;;;;;;68.43;23.95;;;;;;;15.23;35.31;98731.03;4959874;28;20218;-88
2022/03/23 06:56:10;;;;;;;46.28;20.25;;;;;;;16.02;34.35;98718.81;4965881;28;20042;-88
2022/03/23 06:58:36;;;;;;;49.08;22.42;;;;;;;16.32;33.79;98709.66;4971104;28;20136;-89
2022/03/23 07:01:07;;;;;;;75.78;37.13;;;;;;;16.80;33.10;98715.34;4977150;28;20034;-89
2022/03/23 07:03:32;;;;;;;45.60;25.20;;;;;;;16.90;32.96;98714.72;4973502;28;20088;-75
2022/03/23 07:05:58;;;;;;;50.40;23.83;;;;;;;17.57;32.25;98721.69;4974023;28;20034;-76
2022/03/23 07:11:26;;;;;;;71.18;38.95;;;;;;;17.51;31.62;98711.28;4971903;28;20037;-82
2022/03/23 07:13:53;;;;;;;64.25;30.63;;;;;;;17.62;31.84;98697.91;4973613;28;20041;-78
2022/03/23 07:16:29;;;;;;;69.05;32.05;;;;;;;18.34;30.96;98721.41;4973557;28;20061;-77
2022/03/23 07:19:19;;;;;;;50.88;26.73;;;;;;;18.23;30.80;98683.44;4972959;28;20042;-78
2022/03/23 07:22:14;;;;;;;73.00;33.15;;;;;;;16.66;32.82;98688.41;4959312;28;20058;-82
2022/03/23 07:24:46;;;;;;;70.20;33.55;;;;;;;17.14;32.07;98651.69;4950783;28;20089;-78
2022/03/23 07:28:17;;;;;;;30.15;12.93;;;;;;;17.69;31.75;98670.25;4963373;28;20042;-79
2022/03/23 07:31:18;;;;;;;26.85;11.35;;;;;;;18.12;31.41;98661.72;4954421;28;20152;-77
2022/03/23 07:33:50;;;;;;;25.80;8.43;;;;;;;17.73;32.02;98709.66;4964968;28;20399;-76
2022/03/23 07:36:36;;;;;;;16.07;7.10;;;;;;;17.28;32.59;98702.09;4955399;28;20066;-77
2022/03/23 07:42:27;;;;;;;14.93;5.25;;;;;;;13.78;37.98;98721.69;4968168;28;20037;-79
2022/03/23 07:45:01;;;;;;;35.10;6.28;;;;;;;12.56;40.61;98739.03;4972000;28;20425;-77
2022/03/23 07:48:02;;;;;;;19.45;6.15;;;;;;;12.29;41.16;98743.97;4973785;28;20132;-79
2022/03/23 07:50:50;;;;;;;29.80;6.82;;;;;;;12.37;41.94;98750.69;4971523;28;20057;-78
2022/03/23 07:53:27;;;;;;;18.85;7.20;;;;;;;12.46;41.69;98785.13;4955889;28;20042;-77
2022/03/23 07:56:09;;;;;;;16.65;6.10;;;;;;;11.92;42.54;98748.47;4957801;28;20101;-79
2022/03/23 08:01:31;;;;;;;20.60;8.27;;;;;;;12.27;41.39;98695.78;4899664;29;20036;-77
2022/03/23 08:04:06;;;;;;;14.75;6.35;;;;;;;12.30;41.42;98714.41;4948049;28;20440;-79
2022/03/23 08:07:06;;;;;;;23.95;7.35;;;;;;;12.45;41.62;98732.41;4973538;28;20050;-78
2022/03/23 08:09:54;;;;;;;14.15;5.95;;;;;;;11.27;42.97;98711.34;4993619;28;20038;-79
2022/03/23 08:12:46;;;;;;;15.52;6.28;;;;;;;11.60;43.43;98722.28;4967260;28;20049;-75
2022/03/23 08:15:20;;;;;;;16.65;5.75;;;;;;;11.73;43.47;98784.25;4956814;28;20046;-77
2022/03/23 08:17:49;;;;;;;20.92;6.03;;;;;;;11.72;43.22;98761.94;4955666;28;20422;-77
2022/03/23 08:20:33;;;;;;;18.70;5.93;;;;;;;11.91;42.64;98769.97;4973923;28;20516;-75
2022/03/23 08:22:59;;;;;;;34.05;14.73;;;;;;;11.48;43.86;98779.13;4975823;28;20077;-76
2022/03/23 08:25:25;;;;;;;18.52;8.18;;;;;;;12.34;42.46;98769.63;4965862;28;20046;-77
2022/03/23 08:27:51;;;;;;;13.75;7.80;;;;;;;12.63;41.79;98745.84;4957676;28;20129;-75
2022/03/23 08:30:17;;;;;;;34.55;15.93;;;;;;;13.05;41.19;98757.03;4973556;28;20153;-76
2022/03/23 08:32:43;;;;;;;12.60;5.78;;;;;;;13.29;39.65;98733.44;4967423;28;20051;-77
2022/03/23 08:35:09;;;;;;;14.40;6.00;;;;;;;15.54;37.51;98752.47;4955690;28;20042;-75
2022/03/23 08:37:34;;;;;;;23.00;6.25;;;;;;;16.60;34.28;98718.53;4973884;28;20046;-75
2022/03/23 08:40:00;;;;;;;10.90;5.97;;;;;;;14.62;37.38;98737.47;4957128;28;20073;-74
2022/03/23 08:42:26;;;;;;;15.80;5.20;;;;;;;13.42;38.79;98739.84;4973642;28;20038;-76
2022/03/23 08:44:57;;;;;;;17.80;6.25;;;;;;;13.37;39.42;98726.69;4957446;28;20046;-76
2022/03/23 08:47:23;;;;;;;11.75;5.28;;;;;;;12.69;40.41;98730.28;4972627;28;20177;-76
2022/03/23 08:49:52;;;;;;;13.07;6.07;;;;;;;12.99;40.22;98727.81;4973356;28;20136;-76
2022/03/23 08:52:18;;;;;;;21.67;5.97;;;;;;;13.02;40.12;98725.84;4989026;28;20049;-75
2022/03/23 08:54:43;;;;;;;13.32;6.60;;;;;;;13.44;39.62;98727.22;4973275;28;20030;-77
2022/03/23 08:57:49;;;;;;;18.83;7.05;;;;;;;14.08;38.36;98711.03;4973623;28;20077;-77
2022/03/23 09:00:17;;;;;;;15.45;6.78;;;;;;;15.57;35.56;98698.34;4974440;28;20046;-75
2022/03/23 09:03:21;;;;;;;15.82;7.47;;;;;;;16.97;33.35;98648.44;4957446;28;20064;-76
2022/03/23 09:06:11;;;;;;;13.82;6.63;;;;;;;15.69;34.80;98651.69;4959003;28;20050;-76
2022/03/23 09:08:46;;;;;;;15.35;5.43;;;;;;;14.75;35.90;98667.56;4959590;28;20129;-76
2022/03/23 09:11:12;;;;;;;12.40;5.50;;;;;;;15.46;35.39;98659.50;4953410;28;20038;-81
2022/03/23 09:13:58;;;;;;;18.75;6.10;;;;;;;15.07;35.05;98654.81;4970970;28;20057;-81
2022/03/23 09:19:45;;;;;;;12.40;4.97;;;;;;;14.82;35.70;98662.66;4994182;28;20576;-81
2022/03/23 09:22:10;;;;;;;16.10;5.72;;;;;;;16.02;33.57;98663.97;4957681;28;20042;-81
2022/03/23 09:24:36;;;;;;;13.18;4.90;;;;;;;15.46;34.31;98671.16;4957661;28;20034;-81
2022/03/23 09:27:02;;;;;;;11.23;4.13;;;;;;;16.14;33.70;98668.53;4970727;28;20030;-81
2022/03/23 09:29:27;;;;;;;16.23;5.68;;;;;;;15.82;33.57;98665.25;4972852;28;20046;-80
2022/03/23 09:31:53;;;;;;;18.27;5.97;;;;;;;14.87;34.95;98665.94;4951937;28;20038;-82
2022/03/23 09:34:19;;;;;;;12.23;5.60;;;;;;;14.49;35.56;98666.44;4963119;28;20027;-81
2022/03/23 09:39:28;;;;;;;12.15;5.25;;;;;;;13.74;36.39;98652.91;4973981;28;20053;-81
2022/03/23 09:41:56;;;;;;;11.18;4.85;;;;;;;14.69;34.92;98648.22;4966932;28;20030;-81
2022/03/23 09:44:25;;;;;;;10.57;4.78;;;;;;;13.94;36.40;98657.13;4971889;28;20034;-81
2022/03/23 09:46:51;;;;;;;16.70;6.35;;;;;;;14.53;35.37;98659.91;4969431;28;20039;-81
2022/03/23 09:49:17;;;;;;;19.50;7.30;;;;;;;13.88;36.70;98646.72;4971640;28;20113;-81
2022/03/23 09:51:43;;;;;;;30.13;10.00;;;;;;;13.92;37.27;98659.94;4967159;28;20037;-81
2022/03/23 09:54:09;;;;;;;15.35;5.00;;;;;;;15.30;35.46;98654.22;4973481;28;20030;-81
2022/03/23 09:56:35;;;;;;;10.73;4.47;;;;;;;16.49;32.72;98645.41;4969680;28;20101;-81
2022/03/23 09:59:06;;;;;;;15.18;4.97;;;;;;;16.26;32.89;98644.28;4969723;28;20457;-81
2022/03/23 10:01:33;;;;;;;19.33;4.93;;;;;;;15.36;33.46;98642.19;4971160;28;20130;-80
2022/03/23 10:04:20;;;;;;;17.38;4.20;;;;;;;16.45;32.46;98638.50;4972843;28;20038;-79
2022/03/23 10:07:07;;;;;;;34.58;5.03;;;;;;;18.38;30.02;98637.09;4990058;28;20038;-81
2022/03/23 10:09:57;;;;;;;14.95;4.93;;;;;;;17.43;30.46;98627.09;4972502;28;20047;-80
2022/03/23 10:13:04;;;;;;;17.98;4.40;;;;;;;18.46;29.42;98620.22;4972728;28;20042;-81
2022/03/23 10:15:48;;;;;;;12.10;4.22;;;;;;;18.09;29.39;98611.31;4989784;28;20038;-82
2022/03/23 10:18:32;;;;;;;14.82;5.15;;;;;;;18.23;29.56;98611.16;4990069;28;20116;-81
2022/03/23 10:20:57;;;;;;;10.35;4.28;;;;;;;19.69;27.89;98595.00;4981492;28;20088;-81
2022/03/23 10:23:23;;;;;;;24.77;6.00;;;;;;;20.63;26.57;98587.06;4956974;28;20027;-81
2022/03/23 10:25:49;;;;;;;21.02;6.85;;;;;;;21.26;25.87;98579.72;4964255;28;20483;-81
2022/03/23 10:28:16;;;;;;;11.23;5.80;;;;;;;22.00;24.54;98573.81;4972552;28;20042;-82
2022/03/23 10:30:43;;;;;;;20.95;6.05;;;;;;;20.98;25.25;98562.22;4972235;28;20145;-82
2022/03/23 10:33:20;;;;;;;19.52;6.78;;;;;;;17.30;28.87;98570.31;4961421;28;20111;-81
2022/03/23 10:35:46;;;;;;;14.98;7.40;;;;;;;15.45;31.55;98566.94;4970725;28;20031;-81
2022/03/23 10:38:18;;;;;;;19.55;7.97;;;;;;;14.71;33.86;98587.03;4971896;28;20038;-80
2022/03/23 10:40:45;;;;;;;22.45;5.88;;;;;;;14.80;33.80;98602.63;4971740;28;20034;-80
2022/03/23 10:43:13;;;;;;;30.75;5.57;;;;;;;14.43;34.65;98590.53;4971999;28;20449;-81
2022/03/23 10:45:39;;;;;;;18.88;4.53;;;;;;;13.99;33.83;98593.19;4972239;28;20038;-81
2022/03/23 10:48:17;;;;;;;10.07;4.30;;;;;;;13.94;34.10;98582.69;4961042;28;20038;-80
2022/03/23 10:51:09;;;;;;;13.40;4.70;;;;;;;13.78;34.03;98579.16;4971932;28;20120;-82
2022/03/23 10:53:38;;;;;;;14.25;4.30;;;;;;;14.31;33.34;98591.25;4967216;28;20499;-81
2022/03/23 10:56:04;;;;;;;12.30;5.40;;;;;;;15.25;32.36;98578.19;4964097;28;20023;-80
2022/03/23 10:58:30;;;;;;;13.77;4.60;;;;;;;17.08;30.42;98565.59;4971902;28;20452;-81
2022/03/23 11:01:02;;;;;;;13.80;4.15;;;;;;;18.11;28.34;98547.09;4971121;28;20633;-80
2022/03/23 11:03:36;;;;;;;13.60;3.50;;;;;;;17.43;29.10;98557.63;4967341;28;20044;-81
2022/03/23 11:06:02;;;;;;;10.98;4.10;;;;;;;18.75;28.10;98540.25;4971646;28;20161;-82
2022/03/23 11:08:27;;;;;;;12.32;4.70;;;;;;;20.24;26.28;98530.66;4971857;28;20062;-82
2022/03/23 11:16:46;;;;;;;21.75;9.18;;;;;;;20.21;25.46;98514.59;4974397;28;20053;-81
2022/03/23 11:19:14;;;;;;;25.25;4.97;;;;;;;18.96;26.07;98507.84;4971568;28;20093;-81
2022/03/23 11:22:05;;;;;;;11.50;4.18;;;;;;;17.79;26.75;98511.63;4971307;28;20046;-82
2022/03/23 11:24:40;;;;;;;24.77;4.35;;;;;;;18.63;26.66;98511.41;4967645;28;20050;-82
2022/03/23 11:27:08;;;;;;;19.35;4.35;;;;;;;19.01;25.96;98512.91;4956307;28;20050;-82
2022/03/23 11:29:35;;;;;;;12.70;3.70;;;;;;;19.11;24.79;98495.75;4969590;28;20030;-82
2022/03/23 11:32:04;;;;;;;9.65;3.60;;;;;;;19.07;25.28;98498.88;4971942;28;20046;-82
2022/03/23 11:34:32;;;;;;;17.23;4.10;;;;;;;19.98;24.73;98498.41;4971033;28;20512;-81
2022/03/23 11:36:58;;;;;;;13.55;3.90;;;;;;;20.36;24.44;98489.72;4968689;28;20034;-81
2022/03/23 11:39:25;;;;;;;11.18;3.85;;;;;;;21.37;23.64;98484.34;4969373;28;20034;-81
2022/03/23 11:41:53;;;;;;;10.13;4.00;;;;;;;21.02;23.35;98463.88;4969627;28;20042;-82
2022/03/23 11:44:22;;;;;;;7.72;3.20;;;;;;;21.59;21.81;98456.88;4976358;28;20388;-81
2022/03/23 11:46:50;;;;;;;16.02;4.05;;;;;;;20.94;22.61;98455.53;4970468;28;20073;-81
2022/03/23 11:49:44;;;;;;;20.95;4.13;;;;;;;21.59;22.21;98455.00;4951936;28;20054;-81
2022/03/23 11:52:44;;;;;;;15.57;3.78;;;;;;;21.74;22.17;98460.91;4968981;28;20537;-81
2022/03/23 11:55:42;;;;;;;11.68;3.58;;;;;;;21.39;22.74;98455.13;4927753;28;20360;-82
2022/03/23 11:58:17;;;;;;;12.68;4.40;;;;;;;21.09;23.38;98464.22;4959620;28;20494;-80
2022/03/23 12:00:44;;;;;;;11.00;5.85;;;;;;;19.99;24.47;98458.53;4972386;28;20038;-80
2022/03/23 12:03:09;;;;;;;16.80;5.70;;;;;;;20.09;24.97;98439.59;4974146;28;20441;-79
2022/03/23 12:05:36;;;;;;;13.43;4.85;;;;;;;21.00;24.30;98444.13;4967696;28;20039;-78
2022/03/23 12:08:03;;;;;;;6.78;3.60;;;;;;;20.60;24.08;98445.06;4991769;28;20073;-79
2022/03/23 12:10:33;;;;;;;15.82;5.65;;;;;;;20.40;24.75;98438.66;4957794;28;20030;-79
2022/03/23 12:13:18;;;;;;;14.90;4.97;;;;;;;20.66;24.06;98439.97;4974496;28;20038;-79
2022/03/23 12:15:57;;;;;;;18.33;4.53;;;;;;;18.93;25.38;98443.00;4946316;28;20038;-79
2022/03/23 12:19:01;;;;;;;11.70;4.10;;;;;;;20.70;23.83;98440.56;4963344;28;20559;-79
2022/03/23 12:21:32;;;;;;;11.10;4.63;;;;;;;21.54;23.04;98430.06;4973835;28;20050;-78
2022/03/23 12:24:10;;;;;;;10.35;4.72;;;;;;;21.18;22.72;98418.97;4955025;28;20042;-78
2022/03/23 12:26:39;;;;;;;11.65;4.65;;;;;;;21.86;22.45;98426.22;4970607;28;20034;-78
2022/03/23 12:29:09;;;;;;;13.50;5.22;;;;;;;21.15;23.37;98421.97;4953280;28;20035;-79
2022/03/23 12:31:39;;;;;;;16.20;5.20;;;;;;;21.17;23.43;98422.69;4972566;28;20092;-80
2022/03/23 12:34:13;;;;;;;18.23;5.93;;;;;;;20.73;24.01;98423.97;4972391;28;20092;-79
2022/03/23 12:37:01;;;;;;;15.23;6.20;;;;;;;20.51;23.92;98419.56;4957177;28;20077;-79
2022/03/23 12:39:40;;;;;;;18.00;7.10;;;;;;;21.82;22.97;98401.13;4974610;28;20541;-79
2022/03/23 12:42:29;;;;;;;8.13;4.00;;;;;;;20.46;23.02;98394.63;4974053;28;20042;-79
2022/03/23 12:45:02;;;;;;;17.08;4.55;;;;;;;21.28;22.92;98398.97;4970791;28;20419;-79
2022/03/23 12:47:29;;;;;;;12.15;4.28;;;;;;;20.74;23.18;98388.44;4972278;28;20453;-79
2022/03/23 12:58:27;;;;;;;14.30;4.80;;;;;;;22.02;22.69;98391.09;4976028;28;20522;-78
2022/03/23 13:04:05;;;;;;;9.70;4.57;;;;;;;22.12;22.36;98346.47;4977273;28;20506;-80
2022/03/23 13:07:10;;;;;;;17.65;5.35;;;;;;;21.48;23.24;98354.41;4957993;28;20073;-81
2022/03/23 13:10:04;;;;;;;7.97;4.00;;;;;;;21.20;22.61;98305.38;4979819;28;20034;-80
2022/03/23 13:13:07;;;;;;;9.40;3.83;;;;;;;20.66;22.60;98344.78;4992249;28;20050;-81
2022/03/23 13:16:01;;;;;;;10.10;4.40;;;;;;;20.73;22.49;98342.38;4963590;28;20499;-81
2022/03/23 13:19:00;;;;;;;;;;;;;;;;;;;;;
2022/03/23 13:25:20;;;;;;;15.05;5.97;;;;;;;21.66;22.52;98365.41;4871802;29;20053;-83
2022/03/23 13:27:51;;;;;;;14.85;4.68;;;;;;;21.89;21.97;98349.69;4872835;29;20416;-80
2022/03/23 13:30:20;;;;;;;18.77;4.28;;;;;;;21.12;22.48;98373.28;4978121;28;20042;-78
2022/03/23 13:32:50;;;;;;;18.58;5.38;;;;;;;20.96;22.99;98369.19;4989163;28;20437;-79
2022/03/23 13:35:18;;;;;;;11.40;5.22;;;;;;;22.06;22.41;98363.41;4973274;28;20030;-78
2022/03/23 13:38:02;;;;;;;20.15;4.78;;;;;;;20.51;22.87;98355.19;4956210;28;20030;-78
2022/03/23 13:43:38;;;;;;;13.68;5.28;;;;;;;19.76;23.71;98359.16;4903173;28;20428;-79
2022/03/23 13:46:04;;;;;;;13.25;5.40;;;;;;;19.70;23.45;98355.09;4972499;28;20045;-79
2022/03/23 13:48:34;;;;;;;12.60;4.07;;;;;;;19.47;23.30;98357.06;4957945;28;20051;-78
2022/03/23 13:51:00;;;;;;;16.25;5.55;;;;;;;19.73;24.28;98352.13;4956698;28;20034;-79
2022/03/23 13:53:26;;;;;;;16.58;7.80;;;;;;;20.74;23.93;98360.38;4972432;28;20046;-79
2022/03/23 13:55:54;;;;;;;14.85;4.32;;;;;;;20.49;23.86;98359.88;4972082;28;20118;-79
2022/03/23 13:58:21;;;;;;;10.68;4.50;;;;;;;19.80;24.23;98358.75;4965050;28;20034;-78
2022/03/23 14:00:50;;;;;;;12.60;4.15;;;;;;;19.88;24.38;98358.06;4955777;28;20070;-79
2022/03/23 14:03:19;;;;;;;11.82;4.35;;;;;;;20.47;23.13;98351.00;4972476;28;20053;-79
2022/03/23 14:06:01;;;;;;;11.05;4.10;;;;;;;20.00;23.32;98338.88;4965201;28;20038;-78
2022/03/23 14:08:27;;;;;;;17.63;3.58;;;;;;;18.73;23.61;98335.34;4972018;28;20113;-80
2022/03/23 14:10:53;;;;;;;17.83;6.03;;;;;;;18.90;24.20;98335.66;4965227;28;20494;-79
2022/03/23 14:13:19;;;;;;;17.52;6.28;;;;;;;18.54;24.95;98344.13;4958711;28;20066;-79
2022/03/23 14:15:53;;;;;;;10.65;4.32;;;;;;;18.04;25.60;98344.56;4963158;28;20073;-80
2022/03/23 14:18:48;;;;;;;16.08;3.97;;;;;;;18.35;25.18;98346.56;4967802;28;20354;-81
2022/03/23 14:21:29;;;;;;;12.25;3.88;;;;;;;18.62;24.56;98314.53;4967256;28;20514;-80
2022/03/23 14:27:45;;;;;;;10.43;4.75;;;;;;;18.91;24.59;98314.84;4978494;28;20043;-80
2022/03/23 14:30:38;;;;;;;12.20;5.78;;;;;;;19.01;24.39;98299.50;4957888;28;20042;-81
2022/03/23 14:33:57;;;;;;;17.95;5.63;;;;;;;18.42;24.95;98310.75;4956951;28;20046;-82
2022/03/23 14:36:41;;;;;;;16.02;5.60;;;;;;;18.56;24.90;98301.50;4949162;28;20043;-80
2022/03/23 14:39:58;;;;;;;16.50;5.65;;;;;;;18.57;24.76;98284.25;4965782;28;21457;-78
2022/03/23 14:46:26;;;;;;;18.07;5.40;;;;;;;17.01;26.42;98260.69;4905307;28;20134;-83
2022/03/23 14:49:48;;;;;;;14.90;5.78;;;;;;;17.24;25.96;98306.63;4961805;28;20514;-81
2022/03/23 14:53:22;;;;;;;;;;;;;;;;;;;;;
2022/03/23 14:55:48;;;;;;;15.43;7.40;;;;;;;17.55;25.41;98291.59;4949129;28;20104;-81
2022/03/23 14:58:31;;;;;;;19.10;8.35;;;;;;;17.32;25.89;98303.31;4971961;28;20030;-80
2022/03/23 15:00:59;;;;;;;26.27;7.07;;;;;;;17.91;25.72;98324.88;4971061;28;20484;-80
2022/03/23 15:03:29;;;;;;;9.20;3.78;;;;;;;17.70;24.86;98322.88;4971160;28;20038;-79
2022/03/23 15:14:09;;;;;;;55.10;28.65;;;;;;;14.93;27.72;98340.44;4977468;28;20508;-79
2022/03/23 15:16:36;;;;;;;53.92;23.85;;;;;;;14.50;28.55;98338.81;4958882;28;20038;-79
2022/03/23 15:19:03;;;;;;;33.20;9.95;;;;;;;14.06;28.38;98330.88;4974903;28;20046;-80
2022/03/23 15:21:29;;;;;;;20.38;7.82;;;;;;;13.42;28.77;98326.81;4975012;28;20042;-80
2022/03/23 15:23:55;;;;;;;24.92;8.68;;;;;;;13.24;29.56;98332.44;4974796;28;20406;-80
2022/03/23 15:26:23;;;;;;;22.30;6.70;;;;;;;13.14;30.05;98350.91;4974468;28;20502;-80
2022/03/23 15:28:53;;;;;;;16.20;7.97;;;;;;;12.92;30.21;98345.91;4974594;28;20046;-80
2022/03/23 15:31:20;;;;;;;20.67;8.15;;;;;;;12.74;30.24;98338.06;4974441;28;20045;-80
2022/03/23 15:33:47;;;;;;;14.63;6.80;;;;;;;12.55;31.05;98348.16;4974690;28;20150;-80
2022/03/23 15:36:15;;;;;;;16.95;7.25;;;;;;;12.55;31.15;98350.84;4974392;28;20403;-79
2022/03/23 15:38:41;;;;;;;14.25;6.45;;;;;;;12.42;31.37;98351.53;4974859;28;20034;-81
2022/03/23 15:41:07;;;;;;;14.57;6.53;;;;;;;12.31;31.46;98348.56;4974461;28;20540;-81
2022/03/23 15:43:32;;;;;;;12.43;6.05;;;;;;;12.33;31.55;98353.88;4974801;28;20034;-79
2022/03/23 15:45:58;;;;;;;30.42;7.18;;;;;;;12.18;31.90;98350.19;4951751;28;20047;-80
2022/03/23 15:48:27;;;;;;;24.02;8.15;;;;;;;12.03;31.78;98353.72;4958641;28;20137;-80
2022/03/23 15:50:56;;;;;;;16.38;6.38;;;;;;;11.83;32.57;98321.78;4942378;28;20070;-79
2022/03/23 15:53:22;;;;;;;16.40;6.25;;;;;;;11.94;32.58;98357.78;4950703;28;20047;-81
2022/03/23 15:55:49;;;;;;;16.08;6.22;;;;;;;11.89;32.71;98362.53;4974557;28;20038;-80
2022/03/23 15:58:14;;;;;;;12.48;3.60;;;;;;;11.82;32.61;98362.94;4967018;28;20121;-80
2022/03/23 16:00:40;;;;;;;11.25;3.35;;;;;;;11.70;32.75;98360.91;4960745;28;20141;-81
2022/03/23 16:03:06;;;;;;;17.90;3.33;;;;;;;11.60;32.90;98365.88;4975553;28;20069;-80
2022/03/23 16:05:32;;;;;;;17.33;4.30;;;;;;;11.52;33.22;98365.41;4969982;28;20606;-80
2022/03/23 16:07:57;;;;;;;21.92;5.78;;;;;;;11.40;33.12;98364.25;4970024;28;20505;-80
2022/03/23 16:10:23;;;;;;;27.92;9.60;;;;;;;11.32;33.13;98373.63;4976440;28;20034;-80